Time;durP1;ratioP1;P1;durP2;ratioP2;P2;SDS_P1;SDS_P2;PMS_P1;PMS_P2;Temp;Humidity;BMP_temperature;BMP_pressure;BME280_temperature;BME280_humidity;BME280_pressure;Samples;Min_cycle;Max_cycle;Signal;HPM_P1;HPM_P2
2023/08/03 00:02:05;;;;;;;5.95;1.80;;;;;;;;;;4954350;28;20437;-74
2023/08/03 00:04:50;;;;;;;5.25;2.25;;;;;;;;;;4961330;28;20157;-74
2023/08/03 00:07:35;;;;;;;12.95;2.70;;;;;;;;;;4954131;28;20031;-75
2023/08/03 00:10:21;;;;;;;7.70;2.10;;;;;;;;;;4963952;28;20535;-76
2023/08/03 00:13:07;;;;;;;8.90;2.03;;;;;;;;;;4969850;28;20381;-71
2023/08/03 00:15:52;;;;;;;5.55;1.60;;;;;;;;;;4952774;28;20495;-70
2023/08/03 00:18:37;;;;;;;6.60;1.95;;;;;;;;;;4964097;28;20034;-69
2023/08/03 00:21:23;;;;;;;11.93;2.45;;;;;;;;;;4945602;28;20035;-70
2023/08/03 00:24:08;;;;;;;7.22;2.00;;;;;;;;;;4959194;28;20512;-70
2023/08/03 00:26:53;;;;;;;7.72;2.33;;;;;;;;;;4975077;28;20038;-71
2023/08/03 00:29:38;;;;;;;7.93;2.55;;;;;;;;;;4979162;28;20070;-73
2023/08/03 00:32:24;;;;;;;6.20;2.35;;;;;;;;;;4956814;28;20137;-68
2023/08/03 00:35:09;;;;;;;6.18;2.00;;;;;;;;;;4977422;28;20034;-68
2023/08/03 00:37:54;;;;;;;8.75;2.00;;;;;;;;;;4969200;28;20034;-68
2023/08/03 00:40:39;;;;;;;7.40;1.88;;;;;;;;;;4953960;28;20037;-70
2023/08/03 00:43:25;;;;;;;6.60;2.25;;;;;;;;;;4950286;28;20050;-69
2023/08/03 00:46:10;;;;;;;7.88;2.17;;;;;;;;;;4965805;28;20039;-72
2023/08/03 00:48:55;;;;;;;8.05;2.03;;;;;;;;;;4964624;28;20030;-77
2023/08/03 00:51:40;;;;;;;11.20;2.38;;;;;;;;;;4955244;28;20173;-73
2023/08/03 00:54:25;;;;;;;9.10;2.35;;;;;;;;;;4962669;28;20026;-74
2023/08/03 00:57:11;;;;;;;8.40;1.95;;;;;;;;;;4968341;28;20037;-74
2023/08/03 00:59:56;;;;;;;6.45;2.50;;;;;;;;;;4975467;28;20378;-76
2023/08/03 01:02:41;;;;;;;7.18;2.60;;;;;;;;;;4974899;28;20038;-74
2023/08/03 01:05:26;;;;;;;9.93;2.90;;;;;;;;;;4956280;28;20077;-67
2023/08/03 01:08:12;;;;;;;6.70;2.03;;;;;;;;;;4959598;28;20026;-73
2023/08/03 01:10:57;;;;;;;12.07;2.55;;;;;;;;;;4960081;28;20506;-71
2023/08/03 01:13:42;;;;;;;11.30;2.17;;;;;;;;;;4963623;28;20045;-71
2023/08/03 01:16:28;;;;;;;9.38;2.25;;;;;;;;;;4961255;28;20173;-70
2023/08/03 01:19:13;;;;;;;13.95;2.42;;;;;;;;;;4970602;28;20142;-71
2023/08/03 01:22:00;;;;;;;10.85;2.65;;;;;;;;;;4970466;28;20057;-70
2023/08/03 01:24:45;;;;;;;13.98;2.92;;;;;;;;;;4967652;28;20636;-76
2023/08/03 01:27:30;;;;;;;7.68;2.65;;;;;;;;;;4972026;28;20061;-78
2023/08/03 01:30:15;;;;;;;11.23;2.50;;;;;;;;;;4962465;28;20507;-80
2023/08/03 01:33:01;;;;;;;11.95;2.78;;;;;;;;;;4957417;28;20121;-77
2023/08/03 01:35:46;;;;;;;10.35;3.28;;;;;;;;;;4972932;28;20386;-78
2023/08/03 01:38:31;;;;;;;6.90;2.10;;;;;;;;;;4983945;28;20034;-78
2023/08/03 01:41:16;;;;;;;6.55;2.00;;;;;;;;;;4972316;28;20030;-70
2023/08/03 01:44:19;;;;;;;8.27;1.88;;;;;;;;;;4956033;28;20062;-78
2023/08/03 01:47:05;;;;;;;5.18;2.65;;;;;;;;;;4961788;28;20472;-69
2023/08/03 01:49:50;;;;;;;7.97;2.42;;;;;;;;;;4974885;28;20473;-71
2023/08/03 01:52:35;;;;;;;8.60;2.45;;;;;;;;;;4964516;28;20045;-70
2023/08/03 01:55:20;;;;;;;9.95;2.17;;;;;;;;;;4975803;28;20034;-70
2023/08/03 01:58:06;;;;;;;7.78;1.70;;;;;;;;;;4969363;28;20031;-70
2023/08/03 02:00:51;;;;;;;6.30;2.38;;;;;;;;;;4961255;28;20066;-70
2023/08/03 02:03:36;;;;;;;7.90;1.67;;;;;;;;;;4959061;28;20026;-76
2023/08/03 02:06:21;;;;;;;7.55;2.00;;;;;;;;;;4970360;28;20054;-74
2023/08/03 02:09:07;;;;;;;8.10;1.95;;;;;;;;;;4972930;28;20042;-75
2023/08/03 02:11:52;;;;;;;5.28;1.92;;;;;;;;;;4977577;28;20065;-76
2023/08/03 02:14:37;;;;;;;9.55;1.63;;;;;;;;;;4975204;28;20042;-74
2023/08/03 02:17:22;;;;;;;4.55;1.67;;;;;;;;;;4959683;28;20085;-75
2023/08/03 02:20:08;;;;;;;3.75;1.33;;;;;;;;;;4968095;28;20157;-68
2023/08/03 02:22:53;;;;;;;6.80;1.80;;;;;;;;;;4955310;28;20371;-77
2023/08/03 02:25:38;;;;;;;7.78;2.17;;;;;;;;;;4963309;28;20043;-76
2023/08/03 02:28:24;;;;;;;4.70;1.95;;;;;;;;;;4946860;28;20543;-77
2023/08/03 02:31:09;;;;;;;7.57;1.90;;;;;;;;;;4958416;28;20027;-78
2023/08/03 02:33:54;;;;;;;8.98;2.38;;;;;;;;;;4963166;28;20077;-79
2023/08/03 02:36:39;;;;;;;15.48;2.17;;;;;;;;;;4959635;28;20039;-74
2023/08/03 02:39:24;;;;;;;6.40;1.80;;;;;;;;;;4968988;28;20038;-70
2023/08/03 02:42:10;;;;;;;7.93;1.92;;;;;;;;;;4959517;28;20038;-69
2023/08/03 02:44:55;;;;;;;8.15;2.10;;;;;;;;;;4981666;28;20425;-69
2023/08/03 02:47:40;;;;;;;5.18;2.13;;;;;;;;;;4974327;28;20023;-69
2023/08/03 02:50:26;;;;;;;7.63;2.08;;;;;;;;;;4964099;28;20465;-68
2023/08/03 02:53:11;;;;;;;6.18;1.55;;;;;;;;;;4978625;28;20058;-68
2023/08/03 02:55:56;;;;;;;9.90;2.25;;;;;;;;;;4973332;28;20064;-69
2023/08/03 02:58:41;;;;;;;8.65;2.03;;;;;;;;;;4977718;28;20050;-75
2023/08/03 03:01:26;;;;;;;5.95;1.77;;;;;;;;;;4956003;28;20747;-75
2023/08/03 03:04:12;;;;;;;5.10;2.10;;;;;;;;;;4955517;28;20535;-76
2023/08/03 03:06:57;;;;;;;12.30;2.42;;;;;;;;;;4957718;28;20078;-74
2023/08/03 03:09:42;;;;;;;12.13;2.22;;;;;;;;;;4959517;28;20117;-74
2023/08/03 03:12:27;;;;;;;6.28;1.90;;;;;;;;;;4969948;28;20110;-74
2023/08/03 03:15:13;;;;;;;7.00;1.95;;;;;;;;;;4979734;28;20061;-71
2023/08/03 03:17:58;;;;;;;12.57;2.17;;;;;;;;;;4967814;28;20056;-75
2023/08/03 03:20:43;;;;;;;9.68;1.98;;;;;;;;;;4973270;28;20034;-76
2023/08/03 03:23:28;;;;;;;7.75;2.50;;;;;;;;;;4955154;28;20105;-79
2023/08/03 03:26:14;;;;;;;14.65;3.40;;;;;;;;;;4963567;28;20026;-76
2023/08/03 03:28:59;;;;;;;8.27;1.88;;;;;;;;;;4955526;28;20393;-75
2023/08/03 03:31:44;;;;;;;10.15;1.95;;;;;;;;;;4961589;28;20041;-75
2023/08/03 03:34:29;;;;;;;9.35;2.35;;;;;;;;;;4970660;28;20054;-68
2023/08/03 03:37:15;;;;;;;6.22;2.30;;;;;;;;;;4960034;28;20081;-76
2023/08/03 03:40:00;;;;;;;8.35;2.60;;;;;;;;;;4977180;28;20124;-76
2023/08/03 03:42:45;;;;;;;6.35;2.08;;;;;;;;;;4971114;28;20482;-76
2023/08/03 03:45:30;;;;;;;7.35;2.13;;;;;;;;;;4982868;28;20481;-75
2023/08/03 03:48:16;;;;;;;7.70;2.38;;;;;;;;;;4971506;28;20031;-75
2023/08/03 03:51:01;;;;;;;6.45;2.10;;;;;;;;;;4953547;28;20026;-76
2023/08/03 03:53:46;;;;;;;7.13;2.10;;;;;;;;;;4975390;28;20031;-77
2023/08/03 03:56:31;;;;;;;7.90;3.13;;;;;;;;;;4968928;28;20084;-76
2023/08/03 03:59:16;;;;;;;9.05;2.40;;;;;;;;;;4968583;28;20069;-77
2023/08/03 04:02:02;;;;;;;9.93;2.22;;;;;;;;;;4954870;28;20446;-76
2023/08/03 04:04:47;;;;;;;6.32;1.92;;;;;;;;;;4979063;28;20031;-76
2023/08/03 04:07:32;;;;;;;8.60;2.42;;;;;;;;;;4959702;28;20054;-77
2023/08/03 04:10:17;;;;;;;6.45;1.83;;;;;;;;;;4968664;28;20545;-75
2023/08/03 04:13:03;;;;;;;4.82;1.90;;;;;;;;;;4973158;28;20038;-74
2023/08/03 04:15:48;;;;;;;9.95;2.17;;;;;;;;;;4962596;28;20034;-75
2023/08/03 04:18:35;;;;;;;9.80;2.42;;;;;;;;;;4968942;28;20453;-74
2023/08/03 04:21:20;;;;;;;6.65;2.33;;;;;;;;;;4960533;28;20034;-74
2023/08/03 04:24:05;;;;;;;9.27;2.08;;;;;;;;;;4951837;28;20018;-73
2023/08/03 04:26:50;;;;;;;4.85;1.67;;;;;;;;;;4957986;28;20035;-68
2023/08/03 04:29:35;;;;;;;4.18;1.80;;;;;;;;;;4975971;28;20030;-74
2023/08/03 04:32:21;;;;;;;8.55;1.92;;;;;;;;;;4961165;28;20175;-72
2023/08/03 04:35:06;;;;;;;5.45;1.95;;;;;;;;;;4978697;28;20048;-73
2023/08/03 04:37:52;;;;;;;4.35;1.70;;;;;;;;;;4957100;28;20033;-73
2023/08/03 04:40:37;;;;;;;3.03;1.05;;;;;;;;;;4972945;28;20038;-68
2023/08/03 04:43:22;;;;;;;6.05;2.03;;;;;;;;;;4967111;28;20035;-68
2023/08/03 04:46:07;;;;;;;4.55;1.83;;;;;;;;;;4956158;28;20065;-70
2023/08/03 04:48:54;;;;;;;2.95;1.80;;;;;;;;;;4979871;28;20077;-69
2023/08/03 04:51:39;;;;;;;3.92;1.50;;;;;;;;;;4964158;28;20038;-68
2023/08/03 04:54:24;;;;;;;7.03;1.77;;;;;;;;;;4958899;28;20129;-72
2023/08/03 04:57:09;;;;;;;5.40;1.23;;;;;;;;;;4976587;28;20098;-68
2023/08/03 04:59:56;;;;;;;4.20;1.90;;;;;;;;;;4939030;28;20121;-70
2023/08/03 05:02:41;;;;;;;6.60;1.92;;;;;;;;;;4962789;28;20113;-72
2023/08/03 05:05:26;;;;;;;4.30;1.33;;;;;;;;;;4960021;28;20031;-72
2023/08/03 05:08:12;;;;;;;6.15;1.25;;;;;;;;;;4960957;28;20109;-72
2023/08/03 05:10:57;;;;;;;9.23;1.50;;;;;;;;;;4957719;28;20070;-70
2023/08/03 05:13:42;;;;;;;5.47;1.33;;;;;;;;;;4954466;28;20066;-70
2023/08/03 05:16:28;;;;;;;4.53;1.48;;;;;;;;;;4953029;28;20022;-69
2023/08/03 05:19:13;;;;;;;7.10;1.50;;;;;;;;;;4982105;28;20042;-70
2023/08/03 05:21:59;;;;;;;3.38;1.17;;;;;;;;;;4954863;28;20035;-77
2023/08/03 05:24:44;;;;;;;3.30;0.90;;;;;;;;;;4954571;28;20039;-76
2023/08/03 05:27:29;;;;;;;4.32;1.52;;;;;;;;;;4948449;28;20525;-77
2023/08/03 05:30:14;;;;;;;6.18;1.50;;;;;;;;;;4942827;28;20030;-76
2023/08/03 05:33:00;;;;;;;6.00;1.52;;;;;;;;;;4965509;28;20038;-75
2023/08/03 05:35:47;;;;;;;2.60;1.35;;;;;;;;;;4954975;28;20070;-75
2023/08/03 05:38:32;;;;;;;6.03;1.40;;;;;;;;;;4950713;28;20130;-76
2023/08/03 05:41:21;;;;;;;3.75;1.23;;;;;;;;;;4950682;28;20489;-76
2023/08/03 05:44:10;;;;;;;3.90;1.17;;;;;;;;;;4966441;28;20023;-71
2023/08/03 05:46:55;;;;;;;8.27;1.50;;;;;;;;;;4963330;28;20057;-68
2023/08/03 05:49:40;;;;;;;3.60;1.17;;;;;;;;;;4972261;28;20506;-67
2023/08/03 05:52:26;;;;;;;4.50;1.63;;;;;;;;;;4978825;28;20031;-69
2023/08/03 05:55:12;;;;;;;3.20;1.45;;;;;;;;;;4948480;28;20034;-68
2023/08/03 05:57:57;;;;;;;5.68;2.15;;;;;;;;;;4968533;28;20247;-70
2023/08/03 06:00:45;;;;;;;5.20;2.03;;;;;;;;;;4954503;28;20031;-68
2023/08/03 06:03:32;;;;;;;3.97;1.33;;;;;;;;;;4980830;28;22216;-69
2023/08/03 06:06:18;;;;;;;3.15;1.15;;;;;;;;;;4964698;28;20026;-70
2023/08/03 06:09:03;;;;;;;4.55;1.23;;;;;;;;;;4970022;28;20073;-69
2023/08/03 06:11:51;;;;;;;3.80;1.10;;;;;;;;;;4976531;28;20166;-73
2023/08/03 06:14:37;;;;;;;2.95;0.95;;;;;;;;;;4976531;28;20039;-69
2023/08/03 06:17:22;;;;;;;5.45;1.55;;;;;;;;;;4957169;28;20043;-75
2023/08/03 06:20:11;;;;;;;2.58;1.15;;;;;;;;;;4968267;28;20035;-67
2023/08/03 06:22:56;;;;;;;3.03;1.05;;;;;;;;;;4969794;28;20500;-68
2023/08/03 06:25:41;;;;;;;5.65;1.70;;;;;;;;;;4956392;28;20031;-66
2023/08/03 06:28:27;;;;;;;4.28;1.75;;;;;;;;;;4967496;28;20126;-68
2023/08/03 06:31:16;;;;;;;7.40;2.63;;;;;;;;;;4970688;28;20035;-68
2023/08/03 06:34:02;;;;;;;9.18;1.75;;;;;;;;;;4979902;28;20078;-67
2023/08/03 06:36:48;;;;;;;3.90;1.42;;;;;;;;;;4953238;28;20576;-70
2023/08/03 06:39:33;;;;;;;5.05;1.50;;;;;;;;;;4955675;28;20378;-67
2023/08/03 06:42:19;;;;;;;3.63;1.80;;;;;;;;;;4958996;28;20043;-65
2023/08/03 06:45:04;;;;;;;5.65;2.00;;;;;;;;;;4958216;28;20042;-67
2023/08/03 06:47:49;;;;;;;5.43;1.60;;;;;;;;;;4971551;28;20038;-67
2023/08/03 06:50:35;;;;;;;3.10;1.20;;;;;;;;;;4953016;28;20482;-66
2023/08/03 06:53:21;;;;;;;3.60;1.63;;;;;;;;;;4980602;28;20042;-67
2023/08/03 06:56:06;;;;;;;4.60;1.48;;;;;;;;;;4955168;28;20042;-71
2023/08/03 06:58:51;;;;;;;3.78;1.33;;;;;;;;;;4965336;28;20037;-73
2023/08/03 07:01:36;;;;;;;2.28;1.20;;;;;;;;;;4954231;28;20034;-72
2023/08/03 07:04:21;;;;;;;5.95;1.98;;;;;;;;;;4976323;28;20113;-72
2023/08/03 07:07:08;;;;;;;4.95;1.33;;;;;;;;;;4979393;28;20041;-71
2023/08/03 07:09:53;;;;;;;5.85;1.40;;;;;;;;;;4954023;28;20128;-70
2023/08/03 07:12:38;;;;;;;4.57;1.48;;;;;;;;;;4955324;28;20039;-73
2023/08/03 07:15:23;;;;;;;2.33;1.08;;;;;;;;;;4962674;28;20175;-74
2023/08/03 07:18:09;;;;;;;5.47;1.65;;;;;;;;;;4957947;28;20034;-70
2023/08/03 07:20:54;;;;;;;3.80;1.67;;;;;;;;;;4964931;28;20035;-72
2023/08/03 07:23:39;;;;;;;10.23;1.55;;;;;;;;;;4957132;28;20405;-70
2023/08/03 07:26:25;;;;;;;3.75;1.63;;;;;;;;;;4953580;28;20030;-71
2023/08/03 07:29:10;;;;;;;3.67;1.08;;;;;;;;;;4965967;28;20081;-67
2023/08/03 07:31:55;;;;;;;6.13;1.40;;;;;;;;;;4979143;28;20105;-74
2023/08/03 07:34:40;;;;;;;3.60;1.05;;;;;;;;;;4975365;28;20042;-70
2023/08/03 07:37:26;;;;;;;1.45;0.85;;;;;;;;;;4969765;28;20240;-71
2023/08/03 07:40:11;;;;;;;4.70;1.85;;;;;;;;;;4955988;28;20105;-71
2023/08/03 07:42:56;;;;;;;5.65;2.45;;;;;;;;;;4964482;28;20070;-74
2023/08/03 07:45:41;;;;;;;6.00;2.20;;;;;;;;;;4974221;28;20043;-71
2023/08/03 07:48:26;;;;;;;2.88;1.30;;;;;;;;;;4956099;28;20046;-76
2023/08/03 07:51:13;;;;;;;5.88;1.75;;;;;;;;;;4954496;28;20039;-73
2023/08/03 07:53:58;;;;;;;2.83;1.33;;;;;;;;;;4973818;28;20426;-65
2023/08/03 07:56:43;;;;;;;4.43;1.45;;;;;;;;;;4971278;28;20045;-68
2023/08/03 07:59:28;;;;;;;4.38;1.73;;;;;;;;;;4960868;28;20038;-68
2023/08/03 08:02:13;;;;;;;3.20;1.40;;;;;;;;;;4957273;28;20192;-69
2023/08/03 08:04:59;;;;;;;6.72;1.33;;;;;;;;;;4978328;28;20034;-67
2023/08/03 08:07:44;;;;;;;5.38;1.88;;;;;;;;;;4938068;28;20034;-71
2023/08/03 08:10:29;;;;;;;4.55;1.52;;;;;;;;;;4960115;28;20041;-76
2023/08/03 08:13:16;;;;;;;3.03;1.27;;;;;;;;;;4955060;28;20405;-78
2023/08/03 08:16:02;;;;;;;5.05;1.50;;;;;;;;;;4952897;28;20034;-79
2023/08/03 08:18:48;;;;;;;4.60;1.48;;;;;;;;;;4961582;28;20411;-79
2023/08/03 08:21:33;;;;;;;5.07;1.85;;;;;;;;;;4951410;28;20039;-81
2023/08/03 08:24:18;;;;;;;2.08;0.80;;;;;;;;;;4954282;28;20566;-80
2023/08/03 08:27:04;;;;;;;3.13;1.38;;;;;;;;;;4951947;28;20047;-73
2023/08/03 08:29:49;;;;;;;4.82;2.58;;;;;;;;;;4951689;28;20050;-76
2023/08/03 08:32:35;;;;;;;4.80;1.73;;;;;;;;;;4952941;28;20054;-75
2023/08/03 08:35:20;;;;;;;2.70;1.20;;;;;;;;;;4950078;28;20034;-74
2023/08/03 08:38:08;;;;;;;2.53;0.98;;;;;;;;;;4969650;28;20080;-76
2023/08/03 08:40:53;;;;;;;7.88;1.98;;;;;;;;;;4965053;28;20478;-75
2023/08/03 08:43:39;;;;;;;4.15;1.08;;;;;;;;;;4958582;28;20027;-75
2023/08/03 08:46:24;;;;;;;5.00;1.27;;;;;;;;;;4953551;28;20034;-80
2023/08/03 08:49:09;;;;;;;3.92;1.10;;;;;;;;;;4957809;28;20038;-80
2023/08/03 08:51:58;;;;;;;3.90;1.38;;;;;;;;;;4970716;28;20033;-80
2023/08/03 08:54:43;;;;;;;2.25;1.13;;;;;;;;;;4959800;28;20078;-79
2023/08/03 08:57:29;;;;;;;2.88;1.20;;;;;;;;;;4939874;28;20035;-79
2023/08/03 09:00:14;;;;;;;3.30;0.90;;;;;;;;;;4932401;28;20078;-80
2023/08/03 09:03:00;;;;;;;2.42;0.90;;;;;;;;;;4978651;28;20101;-76
2023/08/03 09:05:56;;;;;;;2.28;0.90;;;;;;;;;;4955610;28;20043;-79
2023/08/03 09:08:53;;;;;;;3.95;1.00;;;;;;;;;;4956155;28;20109;-68
2023/08/03 09:11:39;;;;;;;2.33;0.80;;;;;;;;;;4953050;28;20070;-70
2023/08/03 09:14:24;;;;;;;1.50;0.90;;;;;;;;;;4960419;28;20038;-70
2023/08/03 09:17:16;;;;;;;4.05;0.80;;;;;;;;;;4970282;28;20048;-69
2023/08/03 09:20:02;;;;;;;2.00;0.88;;;;;;;;;;4955760;28;20085;-71
2023/08/03 09:22:47;;;;;;;1.42;0.90;;;;;;;;;;4952075;28;20039;-72
2023/08/03 09:25:33;;;;;;;1.63;0.80;;;;;;;;;;4953630;28;20042;-77
2023/08/03 09:28:18;;;;;;;1.92;1.00;;;;;;;;;;4970950;28;20485;-78
2023/08/03 09:31:03;;;;;;;3.30;1.02;;;;;;;;;;4955215;28;20089;-78
2023/08/03 09:33:55;;;;;;;4.38;1.08;;;;;;;;;;4955331;28;20034;-79
2023/08/03 09:36:48;;;;;;;2.55;0.80;;;;;;;;;;4973537;28;20104;-80
2023/08/03 09:39:34;;;;;;;5.57;1.05;;;;;;;;;;4965787;28;20077;-73
2023/08/03 09:42:20;;;;;;;3.03;0.90;;;;;;;;;;4954777;28;20038;-78
2023/08/03 09:45:07;;;;;;;2.47;0.95;;;;;;;;;;4956390;28;20141;-79
2023/08/03 09:47:55;;;;;;;2.70;0.85;;;;;;;;;;4954606;28;20034;-79
2023/08/03 09:50:43;;;;;;;2.67;0.98;;;;;;;;;;4969695;28;20117;-75
2023/08/03 09:53:30;;;;;;;5.13;1.20;;;;;;;;;;4980745;28;20389;-77
2023/08/03 09:56:20;;;;;;;1.52;0.70;;;;;;;;;;4958998;28;20043;-77
2023/08/03 09:59:08;;;;;;;1.75;0.75;;;;;;;;;;4955894;28;20088;-79
2023/08/03 10:01:56;;;;;;;2.78;1.02;;;;;;;;;;4968122;28;20364;-80
2023/08/03 10:04:43;;;;;;;2.38;0.98;;;;;;;;;;4970267;28;20065;-82
2023/08/03 10:07:31;;;;;;;2.10;0.80;;;;;;;;;;4980009;28;20026;-81
2023/08/03 10:10:19;;;;;;;2.60;0.93;;;;;;;;;;4979169;28;20042;-80
2023/08/03 10:13:05;;;;;;;2.75;0.77;;;;;;;;;;4983377;28;20022;-79
2023/08/03 10:15:50;;;;;;;3.47;1.00;;;;;;;;;;4965456;28;20054;-77
2023/08/03 10:18:36;;;;;;;28.25;17.77;;;;;;;;;;4969440;28;20520;-73
2023/08/03 10:21:21;;;;;;;40.78;32.58;;;;;;;;;;4959359;28;20141;-64
2023/08/03 10:24:07;;;;;;;12.73;7.15;;;;;;;;;;4974066;28;20328;-65
2023/08/03 10:26:56;;;;;;;9.80;5.32;;;;;;;;;;4954906;28;20089;-69
2023/08/03 10:29:55;;;;;;;14.82;8.63;;;;;;;;;;4955201;28;20027;-68
2023/08/03 10:32:40;;;;;;;14.65;8.70;;;;;;;;;;4976061;28;20560;-66
2023/08/03 10:35:36;;;;;;;11.60;5.90;;;;;;;;;;4969096;28;20130;-71
2023/08/03 10:38:22;;;;;;;10.27;3.67;;;;;;;;;;4966973;28;20062;-70
2023/08/03 10:41:27;;;;;;;5.53;2.63;;;;;;;;;;4967241;28;20057;-72
2023/08/03 10:44:12;;;;;;;5.38;2.30;;;;;;;;;;4950679;28;20053;-70
2023/08/03 10:46:58;;;;;;;11.82;5.35;;;;;;;;;;4962720;28;20027;-72
2023/08/03 10:49:43;;;;;;;6.55;2.72;;;;;;;;;;4976021;28;20097;-69
2023/08/03 10:52:31;;;;;;;6.43;2.60;;;;;;;;;;4955699;28;20068;-68
2023/08/03 10:55:21;;;;;;;3.20;2.00;;;;;;;;;;4971787;28;20027;-68
2023/08/03 10:58:06;;;;;;;4.10;1.95;;;;;;;;;;4958498;28;20020;-68
2023/08/03 11:00:51;;;;;;;4.00;1.15;;;;;;;;;;4953541;28;20480;-66
2023/08/03 11:03:36;;;;;;;5.70;1.42;;;;;;;;;;4973019;28;20034;-67
2023/08/03 11:06:22;;;;;;;4.72;1.90;;;;;;;;;;4960783;28;20044;-66
2023/08/03 11:09:08;;;;;;;2.83;0.90;;;;;;;;;;4943183;28;20576;-65
2023/08/03 11:11:55;;;;;;;4.22;0.98;;;;;;;;;;4965483;28;20019;-71
2023/08/03 11:14:40;;;;;;;3.42;1.17;;;;;;;;;;4956048;28;20059;-70
2023/08/03 11:17:26;;;;;;;2.38;1.08;;;;;;;;;;4961202;28;20031;-69
2023/08/03 11:20:14;;;;;;;1.98;1.02;;;;;;;;;;4982295;28;20033;-76
2023/08/03 11:22:59;;;;;;;2.08;0.90;;;;;;;;;;4969236;28;20066;-70
2023/08/03 11:25:45;;;;;;;1.25;0.90;;;;;;;;;;4968029;28;20077;-72
2023/08/03 11:28:30;;;;;;;2.13;1.45;;;;;;;;;;4970971;28;20035;-71
2023/08/03 11:31:15;;;;;;;4.18;1.20;;;;;;;;;;4963092;28;20035;-69
2023/08/03 11:34:01;;;;;;;3.10;0.90;;;;;;;;;;4965711;28;20074;-67
2023/08/03 11:36:47;;;;;;;1.27;0.75;;;;;;;;;;4964457;28;20034;-66
2023/08/03 11:39:32;;;;;;;3.08;1.00;;;;;;;;;;4971695;28;20035;-64
2023/08/03 11:42:18;;;;;;;1.98;1.00;;;;;;;;;;4972485;28;20022;-64
2023/08/03 11:45:03;;;;;;;2.55;1.27;;;;;;;;;;4963750;28;20057;-68
2023/08/03 11:47:48;;;;;;;3.50;0.63;;;;;;;;;;4954010;28;20124;-64
2023/08/03 11:50:34;;;;;;;2.60;1.10;;;;;;;;;;4955831;28;20422;-75
2023/08/03 11:53:26;;;;;;;3.15;1.25;;;;;;;;;;4966310;28;20236;-68
2023/08/03 11:56:14;;;;;;;3.22;1.13;;;;;;;;;;4936873;28;20027;-70
2023/08/03 11:59:01;;;;;;;2.80;0.90;;;;;;;;;;4955986;28;20097;-69
2023/08/03 12:01:47;;;;;;;1.63;0.80;;;;;;;;;;4963048;28;20389;-71
2023/08/03 12:04:33;;;;;;;1.50;0.82;;;;;;;;;;4960318;28;20034;-71
2023/08/03 12:07:20;;;;;;;2.70;0.88;;;;;;;;;;4976553;28;20351;-70
2023/08/03 12:10:12;;;;;;;1.17;0.75;;;;;;;;;;4953698;28;20058;-69
2023/08/03 12:12:57;;;;;;;1.08;0.80;;;;;;;;;;4975702;28;20085;-71
2023/08/03 12:15:42;;;;;;;1.92;0.68;;;;;;;;;;4964789;28;20041;-69
2023/08/03 12:18:28;;;;;;;3.40;1.00;;;;;;;;;;4958396;28;20197;-71
2023/08/03 12:21:13;;;;;;;2.67;1.10;;;;;;;;;;4958592;28;20026;-71
2023/08/03 12:23:58;;;;;;;2.63;1.02;;;;;;;;;;4948240;28;20031;-69
2023/08/03 12:26:44;;;;;;;1.30;1.10;;;;;;;;;;4953574;28;20023;-70
2023/08/03 12:29:30;;;;;;;5.28;1.15;;;;;;;;;;4976143;28;20038;-68
2023/08/03 12:32:16;;;;;;;3.45;0.85;;;;;;;;;;4954270;28;20105;-71
2023/08/03 12:35:01;;;;;;;2.85;0.95;;;;;;;;;;4957237;28;20480;-73
2023/08/03 12:37:46;;;;;;;2.10;0.98;;;;;;;;;;4975485;28;20039;-73
2023/08/03 12:40:32;;;;;;;0.95;0.80;;;;;;;;;;4951061;28;20062;-75
2023/08/03 12:43:17;;;;;;;1.33;0.80;;;;;;;;;;4957473;28;20374;-72
2023/08/03 12:46:02;;;;;;;2.10;1.00;;;;;;;;;;4963128;28;20042;-70
2023/08/03 12:48:47;;;;;;;3.30;0.88;;;;;;;;;;4954906;28;20359;-71
2023/08/03 12:51:35;;;;;;;2.28;1.00;;;;;;;;;;4964777;28;20023;-72
2023/08/03 12:54:20;;;;;;;3.25;0.82;;;;;;;;;;4967082;28;20062;-73
2023/08/03 12:57:05;;;;;;;3.85;0.95;;;;;;;;;;4974946;28;20034;-71
2023/08/03 12:59:51;;;;;;;2.70;0.82;;;;;;;;;;4960673;28;21866;-70
2023/08/03 13:02:36;;;;;;;2.40;0.82;;;;;;;;;;4957073;28;20178;-75
2023/08/03 13:05:21;;;;;;;1.83;1.00;;;;;;;;;;4965360;28;20118;-71
2023/08/03 13:08:06;;;;;;;1.77;1.05;;;;;;;;;;4982602;28;20029;-71
2023/08/03 13:10:52;;;;;;;1.75;0.85;;;;;;;;;;4959622;28;20027;-72
2023/08/03 13:13:37;;;;;;;3.75;1.58;;;;;;;;;;4958730;28;20573;-73
2023/08/03 13:16:24;;;;;;;2.15;1.05;;;;;;;;;;4977051;28;20493;-71
2023/08/03 13:19:10;;;;;;;2.83;1.45;;;;;;;;;;4975926;28;20034;-73
2023/08/03 13:21:55;;;;;;;2.03;0.70;;;;;;;;;;4959900;28;20033;-71
2023/08/03 13:24:40;;;;;;;1.45;0.90;;;;;;;;;;4968501;28;20074;-70
2023/08/03 13:27:27;;;;;;;3.08;1.42;;;;;;;;;;4969125;28;20065;-70
2023/08/03 13:30:14;;;;;;;1.50;0.70;;;;;;;;;;4981359;28;20042;-72
2023/08/03 13:32:59;;;;;;;1.48;0.70;;;;;;;;;;4986187;28;20100;-70
2023/08/03 13:35:44;;;;;;;2.20;1.20;;;;;;;;;;4956521;28;20043;-70
2023/08/03 13:38:29;;;;;;;4.32;1.52;;;;;;;;;;4953964;28;20118;-69
2023/08/03 13:41:17;;;;;;;2.60;0.93;;;;;;;;;;4958691;28;20038;-80
2023/08/03 13:44:03;;;;;;;2.15;1.05;;;;;;;;;;4970304;28;20077;-82
2023/08/03 13:46:49;;;;;;;1.83;0.80;;;;;;;;;;4957863;28;20038;-84
2023/08/03 13:49:36;;;;;;;2.33;0.85;;;;;;;;;;4981202;28;21011;-77
2023/08/03 13:52:21;;;;;;;4.05;1.10;;;;;;;;;;4940124;28;20063;-78
2023/08/03 13:55:07;;;;;;;2.72;0.88;;;;;;;;;;4942531;28;20667;-79
2023/08/03 13:57:53;;;;;;;2.03;0.80;;;;;;;;;;4972501;28;20031;-72
2023/08/03 14:00:38;;;;;;;2.67;0.80;;;;;;;;;;4950992;28;20038;-71
2023/08/03 14:03:23;;;;;;;2.72;0.90;;;;;;;;;;4949428;28;20039;-74
2023/08/03 14:06:08;;;;;;;2.28;0.95;;;;;;;;;;4934286;28;20427;-74
2023/08/03 14:08:54;;;;;;;0.70;0.70;;;;;;;;;;4956190;28;20031;-74
2023/08/03 14:11:39;;;;;;;1.55;0.85;;;;;;;;;;4957892;28;20035;-73
2023/08/03 14:14:24;;;;;;;3.08;0.60;;;;;;;;;;4964000;28;20034;-72
2023/08/03 14:17:09;;;;;;;1.00;0.75;;;;;;;;;;4963164;28;20030;-67
2023/08/03 14:19:55;;;;;;;2.22;1.45;;;;;;;;;;4953520;28;20086;-71
2023/08/03 14:22:40;;;;;;;1.65;0.82;;;;;;;;;;4960394;28;20062;-71
2023/08/03 14:25:25;;;;;;;2.55;0.65;;;;;;;;;;4957542;28;20034;-71
2023/08/03 14:28:11;;;;;;;2.92;1.08;;;;;;;;;;4969317;28;20491;-71
2023/08/03 14:31:00;;;;;;;1.00;0.90;;;;;;;;;;4957463;28;20045;-72
2023/08/03 14:33:45;;;;;;;1.30;0.70;;;;;;;;;;4981525;28;20058;-80
2023/08/03 14:36:31;;;;;;;1.13;0.60;;;;;;;;;;4982211;28;20113;-75
2023/08/03 14:39:16;;;;;;;2.08;0.82;;;;;;;;;;4958689;28;20025;-78
2023/08/03 14:42:01;;;;;;;7.07;1.02;;;;;;;;;;4956069;28;20638;-70
2023/08/03 14:44:46;;;;;;;0.80;0.80;;;;;;;;;;4941852;28;20034;-71
2023/08/03 14:47:32;;;;;;;1.67;0.60;;;;;;;;;;4964868;28;20117;-71
2023/08/03 14:50:17;;;;;;;1.02;0.70;;;;;;;;;;4952302;28;20034;-72
2023/08/03 14:53:02;;;;;;;1.33;0.60;;;;;;;;;;4955260;28;20027;-78
2023/08/03 14:55:47;;;;;;;2.35;0.80;;;;;;;;;;4959296;28;20065;-74
2023/08/03 14:58:33;;;;;;;1.63;0.77;;;;;;;;;;4967272;28;20362;-81
2023/08/03 15:01:18;;;;;;;1.00;0.57;;;;;;;;;;4956271;28;20462;-78
2023/08/03 15:04:03;;;;;;;1.27;0.80;;;;;;;;;;4960215;28;20054;-79
2023/08/03 15:06:49;;;;;;;1.20;0.88;;;;;;;;;;4959625;28;20065;-79
2023/08/03 15:09:35;;;;;;;1.27;0.90;;;;;;;;;;4984600;28;20413;-79
2023/08/03 15:12:21;;;;;;;1.45;0.65;;;;;;;;;;4973613;28;20062;-77
2023/08/03 15:15:06;;;;;;;1.48;0.70;;;;;;;;;;4977556;28;20101;-74
2023/08/03 15:17:52;;;;;;;1.05;0.90;;;;;;;;;;4953401;28;20537;-72
2023/08/03 15:20:37;;;;;;;1.25;0.75;;;;;;;;;;4980843;28;20031;-71
2023/08/03 15:23:23;;;;;;;1.52;0.90;;;;;;;;;;4976581;28;20035;-71
2023/08/03 15:26:08;;;;;;;0.50;0.50;;;;;;;;;;4970582;28;20043;-71
2023/08/03 15:28:53;;;;;;;0.63;0.50;;;;;;;;;;4958266;28;20030;-71
2023/08/03 15:31:39;;;;;;;0.70;0.70;;;;;;;;;;4955925;28;20503;-73
2023/08/03 15:34:24;;;;;;;0.63;0.60;;;;;;;;;;4965907;28;20026;-75
2023/08/03 15:37:09;;;;;;;1.75;0.80;;;;;;;;;;4975884;28;20469;-73
2023/08/03 15:39:55;;;;;;;0.50;0.50;;;;;;;;;;4965276;28;20030;-76
2023/08/03 15:42:40;;;;;;;1.33;0.80;;;;;;;;;;4956415;28;20115;-74
2023/08/03 15:45:26;;;;;;;1.75;0.88;;;;;;;;;;4980272;28;20033;-74
2023/08/03 15:48:13;;;;;;;2.00;0.77;;;;;;;;;;4953968;28;20045;-69
2023/08/03 15:50:59;;;;;;;2.63;1.00;;;;;;;;;;4951583;28;20043;-74
2023/08/03 15:53:58;;;;;;;2.20;0.60;;;;;;;;;;5040181;28;20532;-69
2023/08/03 15:56:43;;;;;;;1.50;0.98;;;;;;;;;;5018872;28;20042;-76
2023/08/03 15:59:28;;;;;;;1.60;0.80;;;;;;;;;;5019529;28;20033;-75
2023/08/03 16:02:14;;;;;;;0.75;0.60;;;;;;;;;;5020327;28;20037;-76
2023/08/03 16:04:59;;;;;;;1.60;0.90;;;;;;;;;;5005910;28;20041;-74
2023/08/03 16:07:44;;;;;;;3.00;1.20;;;;;;;;;;5017342;28;20038;-73
2023/08/03 16:10:32;;;;;;;0.70;0.63;;;;;;;;;;5018690;28;20076;-69
2023/08/03 16:13:18;;;;;;;0.98;0.85;;;;;;;;;;5028911;28;20049;-69
2023/08/03 16:16:04;;;;;;;0.68;0.55;;;;;;;;;;5030381;28;20025;-69
2023/08/03 16:18:49;;;;;;;1.13;0.70;;;;;;;;;;5014373;28;20026;-70
2023/08/03 16:21:35;;;;;;;1.83;0.75;;;;;;;;;;5052312;28;20152;-68
2023/08/03 16:24:20;;;;;;;1.58;0.80;;;;;;;;;;5017463;28;20026;-71
2023/08/03 16:27:05;;;;;;;1.63;0.80;;;;;;;;;;4991199;28;20148;-78
2023/08/03 16:29:50;;;;;;;1.27;1.10;;;;;;;;;;5049086;28;20116;-76
2023/08/03 16:32:36;;;;;;;1.67;0.73;;;;;;;;;;5024236;28;20037;-74
2023/08/03 16:35:21;;;;;;;1.33;0.90;;;;;;;;;;5025991;28;20021;-74